Time;durP1;ratioP1;P1;durP2;ratioP2;P2;SDS_P1;SDS_P2;PMS_P1;PMS_P2;Temp;Humidity;BMP_temperature;BMP_pressure;BME280_temperature;BME280_humidity;BME280_pressure;Samples;Min_cycle;Max_cycle;Signal;HPM_P1;HPM_P2
2021/12/29 00:00:55;;;;;;;10.50;4.90;;;;;;;-7.38;100.00;99376.28;1722672;82;21535;-70
2021/12/29 00:03:21;;;;;;;;;;;;;;;-7.36;100.00;99369.83;1755727;80;21097;-70
2021/12/29 00:05:47;;;;;;;13.53;5.40;;;;;;;-7.34;100.00;99365.70;1749082;81;20134;-70
2021/12/29 00:08:14;;;;;;;10.60;5.53;;;;;;;-7.37;100.00;99372.16;1756201;81;21009;-70
2021/12/29 00:10:41;;;;;;;10.75;5.45;;;;;;;-7.36;100.00;99370.31;1750763;81;21022;-70
2021/12/29 00:13:07;;;;;;;10.65;5.03;;;;;;;-7.35;100.00;99369.33;1754854;81;21036;-71
2021/12/29 00:15:36;;;;;;;9.28;5.28;;;;;;;-7.31;100.00;99373.30;1754719;80;21087;-70
2021/12/29 00:18:03;;;;;;;13.38;5.78;;;;;;;-7.32;100.00;99371.64;1754175;81;21014;-70
2021/12/29 00:20:31;;;;;;;10.70;5.30;;;;;;;-7.27;100.00;99376.78;1755141;80;21019;-70
2021/12/29 00:23:01;;;;;;;10.85;6.47;;;;;;;-7.25;100.00;99373.45;1755389;81;21011;-70
2021/12/29 00:25:28;;;;;;;10.45;5.12;;;;;;;-7.27;100.00;99366.69;1754667;80;21078;-70
2021/12/29 00:27:59;;;;;;;12.65;6.12;;;;;;;-7.27;100.00;99363.55;1754969;82;21010;-70
2021/12/29 00:30:26;;;;;;;11.15;5.22;;;;;;;-7.24;100.00;99365.03;1737860;80;21086;-71
2021/12/29 00:32:57;;;;;;;10.38;5.37;;;;;;;-7.21;100.00;99359.39;1742553;82;21023;-71
2021/12/29 00:35:42;;;;;;;10.55;5.10;;;;;;;-7.20;100.00;99356.59;1753453;81;21030;-71
2021/12/29 00:38:27;;;;;;;12.30;5.50;;;;;;;-7.18;100.00;99348.48;1755551;82;21051;-71
2021/12/29 00:41:12;;;;;;;10.88;5.78;;;;;;;-7.15;100.00;99345.49;1755260;81;20983;-71
2021/12/29 00:43:46;;;;;;;9.80;4.87;;;;;;;-7.16;100.00;99345.19;1718304;80;21085;-70
2021/12/29 00:46:18;;;;;;;11.10;5.47;;;;;;;-7.12;100.00;99338.57;1731827;82;21038;-70
2021/12/29 00:48:47;;;;;;;10.50;5.03;;;;;;;-7.11;100.00;99336.23;1755409;81;21019;-71
2021/12/29 00:51:13;;;;;;;9.35;4.80;;;;;;;-7.14;100.00;99332.11;1755194;81;20968;-71
2021/12/29 00:53:40;;;;;;;11.88;5.20;;;;;;;-7.10;100.00;99327.30;1714385;82;21521;-71
2021/12/29 00:56:06;;;;;;;9.33;5.08;;;;;;;-7.11;100.00;99315.89;1754300;81;21026;-71
2021/12/29 00:58:33;;;;;;;;;;;;;;;-7.08;100.00;99308.11;1728506;82;21541;-71
2021/12/29 01:00:59;;;;;;;11.80;5.72;;;;;;;-7.07;100.00;99309.77;1754427;81;20201;-71
2021/12/29 01:03:26;;;;;;;8.88;4.28;;;;;;;-7.14;100.00;99303.50;1755175;80;21050;-71
2021/12/29 01:05:53;;;;;;;13.35;5.05;;;;;;;-7.17;100.00;99306.49;1748691;81;21058;-71
2021/12/29 01:08:20;;;;;;;10.45;4.92;;;;;;;-7.18;100.00;99293.76;1747110;80;21046;-71
2021/12/29 01:10:47;;;;;;;11.90;4.65;;;;;;;-7.15;100.00;99297.88;1754714;81;21090;-70
2021/12/29 01:13:19;;;;;;;9.88;5.08;;;;;;;-7.14;100.00;99295.56;1753718;81;21497;-70
2021/12/29 01:18:16;;;;;;;9.75;4.40;;;;;;;-7.12;100.00;99289.63;1662644;82;21066;-70
2021/12/29 01:20:44;;;;;;;11.10;5.22;;;;;;;-7.10;100.00;99289.77;1754294;81;21404;-70
2021/12/29 01:23:11;;;;;;;7.97;4.10;;;;;;;-7.09;100.00;99290.61;1754414;82;21047;-71
2021/12/29 01:25:37;;;;;;;11.45;4.25;;;;;;;-7.07;100.00;99292.57;1755051;80;21495;-70
2021/12/29 01:28:04;;;;;;;8.85;4.37;;;;;;;-7.05;100.00;99295.36;1754995;81;21030;-70
2021/12/29 01:30:31;;;;;;;11.40;4.62;;;;;;;-7.01;100.00;99293.73;1754908;80;21070;-70
2021/12/29 01:33:06;;;;;;;8.75;4.12;;;;;;;-7.06;100.00;99299.03;1754782;82;21042;-70
2021/12/29 01:35:37;;;;;;;7.97;4.47;;;;;;;-7.06;100.00;99302.17;1754665;81;21101;-70
2021/12/29 01:38:05;;;;;;;9.28;4.50;;;;;;;-7.06;100.00;99306.13;1755389;82;21033;-70
2021/12/29 01:40:32;;;;;;;8.53;4.40;;;;;;;-7.03;100.00;99308.93;1754544;80;21033;-70
2021/12/29 01:42:58;;;;;;;;;;;;;;;-7.02;100.00;99307.45;1728421;82;21463;-71
2021/12/29 01:45:25;;;;;;;10.03;4.80;;;;;;;-6.97;100.00;99311.72;1754629;81;20153;-71
2021/12/29 01:47:53;;;;;;;8.85;4.15;;;;;;;-7.00;100.00;99306.77;1755107;82;21661;-71
2021/12/29 01:50:21;;;;;;;9.40;4.17;;;;;;;-6.99;100.00;99305.78;1755020;81;21039;-71
2021/12/29 01:52:54;;;;;;;;;;;;;;;-7.00;100.00;99304.12;1757538;81;21036;-71
2021/12/29 01:55:15;;;;;;;8.78;4.30;;;;;;;-6.99;100.00;99296.52;1726076;81;20159;-71
2021/12/29 01:57:42;;;;;;;8.68;4.30;;;;;;;-7.01;100.00;99288.44;1756629;81;21517;-71
2021/12/29 02:00:16;;;;;;;9.15;4.70;;;;;;;-7.03;100.00;99285.95;1752441;81;21071;-71
2021/12/29 02:02:42;;;;;;;9.25;4.08;;;;;;;-7.03;100.00;99283.30;1731661;82;21094;-71
2021/12/29 02:05:09;;;;;;;8.00;4.35;;;;;;;-7.03;100.00;99283.80;1741927;81;21090;-71
2021/12/29 02:07:37;;;;;;;10.05;5.17;;;;;;;-7.03;100.00;99279.33;1737747;81;21071;-71
2021/12/29 02:10:05;;;;;;;10.38;4.45;;;;;;;-7.01;100.00;99277.33;1740810;82;21061;-71
2021/12/29 02:12:33;;;;;;;10.23;4.85;;;;;;;-7.01;100.00;99279.97;1732305;82;21095;-71
2021/12/29 02:17:42;;;;;;;9.63;4.67;;;;;;;-7.01;100.00;99261.45;1816560;78;22703;-63
2021/12/29 02:20:11;;;;;;;;;;;;;;;-7.08;100.00;99265.78;1760427;80;21086;-63
2021/12/29 02:22:50;;;;;;;10.35;4.33;;;;;;;-7.08;100.00;99259.99;1752108;80;20097;-63
2021/12/29 02:27:48;;;;;;;10.45;4.70;;;;;;;-7.12;100.00;99263.97;1749196;80;21529;-63
2021/12/29 02:30:17;;;;;;;8.80;4.50;;;;;;;-7.10;100.00;99258.52;1747776;81;21057;-63
2021/12/29 02:32:45;;;;;;;7.55;4.22;;;;;;;-7.11;100.00;99259.51;1757808;81;20995;-63
2021/12/29 02:35:13;;;;;;;10.20;4.95;;;;;;;-7.09;100.00;99256.22;1764181;81;21038;-63
2021/12/29 02:37:40;;;;;;;7.78;4.20;;;;;;;-7.04;100.00;99253.86;1743311;81;21035;-64
2021/12/29 02:40:07;;;;;;;10.93;4.58;;;;;;;-7.01;100.00;99251.39;1755433;80;21026;-62
2021/12/29 02:42:40;;;;;;;8.33;4.53;;;;;;;-7.00;100.00;99252.53;1755266;81;21710;-63
2021/12/29 02:45:05;;;;;;;8.53;4.17;;;;;;;-6.98;100.00;99252.38;1741088;81;21568;-63
2021/12/29 02:47:33;;;;;;;8.85;4.95;;;;;;;-6.97;100.00;99253.50;1760676;81;21056;-63
2021/12/29 02:49:59;;;;;;;8.13;4.42;;;;;;;-6.97;100.00;99240.27;1743144;80;21073;-63
2021/12/29 02:52:25;;;;;;;9.40;4.47;;;;;;;-6.94;100.00;99245.22;1742903;81;21013;-63
2021/12/29 02:54:53;;;;;;;9.05;4.42;;;;;;;-6.94;100.00;99233.83;1749534;81;21089;-63
2021/12/29 02:57:19;;;;;;;8.78;4.37;;;;;;;-6.97;100.00;99242.92;1759694;80;21034;-63
2021/12/29 02:59:45;;;;;;;14.05;4.75;;;;;;;-6.96;100.00;99237.96;1749604;81;21050;-63
2021/12/29 03:06:33;;;;;;;10.55;4.05;;;;;;;-6.88;100.00;99247.20;1838109;76;22885;-63
2021/12/29 03:09:03;;;;;;;7.75;4.37;;;;;;;-6.95;100.00;99258.14;1758533;80;21037;-63
2021/12/29 03:11:29;;;;;;;8.68;4.45;;;;;;;-6.92;100.00;99260.94;1738319;82;21002;-63
2021/12/29 03:13:55;;;;;;;11.28;4.47;;;;;;;-6.94;100.00;99259.77;1748579;82;21080;-63
2021/12/29 03:16:22;;;;;;;8.95;4.37;;;;;;;-6.94;100.00;99259.77;1738334;82;21040;-63
2021/12/29 03:18:49;;;;;;;9.63;4.67;;;;;;;-6.93;100.00;99251.34;1730373;82;21129;-64
2021/12/29 03:21:16;;;;;;;8.25;4.47;;;;;;;-6.93;100.00;99250.84;1738109;82;21607;-63
2021/12/29 03:23:44;;;;;;;8.78;4.58;;;;;;;-6.90;100.00;99248.34;1736172;83;21452;-63
2021/12/29 03:26:11;;;;;;;10.93;5.12;;;;;;;-6.86;100.00;99250.48;1738819;82;21025;-63
2021/12/29 03:28:37;;;;;;;10.30;6.00;;;;;;;-6.81;100.00;99244.67;1737394;81;21104;-63
2021/12/29 03:31:04;;;;;;;11.35;6.00;;;;;;;-6.79;100.00;99239.53;1734054;82;21011;-63
2021/12/29 03:33:31;;;;;;;11.03;6.22;;;;;;;-6.82;100.00;99239.87;1740471;81;21581;-63
2021/12/29 03:36:01;;;;;;;11.90;6.35;;;;;;;-6.81;100.00;99232.27;1742870;81;21014;-63
2021/12/29 03:38:33;;;;;;;12.23;6.92;;;;;;;-6.75;100.00;99240.00;1706903;84;21133;-63
2021/12/29 03:41:00;;;;;;;13.60;7.28;;;;;;;-6.73;100.00;99244.13;1729998;82;21030;-63
2021/12/29 03:43:28;;;;;;;13.62;7.58;;;;;;;-6.77;100.00;99239.37;1740549;82;21023;-63
2021/12/29 03:45:54;;;;;;;11.20;6.15;;;;;;;-6.80;100.00;99244.48;1740720;82;21041;-63
2021/12/29 03:48:23;;;;;;;;;;;;;;;-6.81;100.00;99242.86;1738820;81;21472;-63
2021/12/29 03:50:49;;;;;;;14.43;6.65;;;;;;;-6.86;100.00;99247.84;1737496;82;20096;-63
2021/12/29 03:53:16;;;;;;;12.90;6.42;;;;;;;-6.93;100.00;99250.02;1739201;82;21033;-63
2021/12/29 03:55:43;;;;;;;;;;;;;;;-6.92;100.00;99249.03;1739947;82;21084;-63
2021/12/29 03:58:09;;;;;;;14.03;5.95;;;;;;;-6.93;100.00;99251.34;1754862;81;20102;-63
2021/12/29 04:00:36;;;;;;;12.33;6.17;;;;;;;-6.95;100.00;99247.56;1714344;82;21033;-63
2021/12/29 04:03:04;;;;;;;12.93;6.60;;;;;;;-6.99;100.00;99251.54;1737769;82;21032;-63
2021/12/29 04:05:30;;;;;;;12.75;6.25;;;;;;;-7.00;100.00;99245.09;1737138;81;21064;-63
2021/12/29 04:07:57;;;;;;;;;;;;;;;-7.03;100.00;99250.72;1726190;83;21562;-63
2021/12/29 04:10:23;;;;;;;10.48;5.78;;;;;;;-7.02;100.00;99251.89;1723833;82;20127;-63
2021/12/29 04:12:50;;;;;;;9.95;5.80;;;;;;;-7.07;100.00;99247.59;1717334;82;20980;-63
2021/12/29 04:15:17;;;;;;;12.03;5.87;;;;;;;-7.06;100.00;99239.99;1733299;83;21043;-63
2021/12/29 04:17:45;;;;;;;11.63;5.83;;;;;;;-7.05;100.00;99240.33;1744891;82;21540;-63
2021/12/29 04:23:01;;;;;;;12.55;6.40;;;;;;;-6.96;100.00;99243.25;1756427;80;21026;-63
2021/12/29 04:25:30;;;;;;;11.83;5.35;;;;;;;-6.98;100.00;99239.97;1780766;80;21075;-63
2021/12/29 04:27:57;;;;;;;9.90;5.17;;;;;;;-7.00;100.00;99235.33;1776268;80;20971;-63
2021/12/29 04:30:24;;;;;;;12.40;5.15;;;;;;;-7.00;100.00;99234.00;1777667;80;21082;-63
2021/12/29 04:32:52;;;;;;;11.00;4.75;;;;;;;-6.99;100.00;99233.52;1782202;80;21478;-63
2021/12/29 04:35:20;;;;;;;11.08;5.70;;;;;;;-7.01;100.00;99232.34;1785488;80;21084;-63
2021/12/29 04:37:47;;;;;;;10.45;4.97;;;;;;;-7.00;100.00;99230.04;1785407;79;20957;-63
2021/12/29 04:40:13;;;;;;;;;;;;;;;-6.98;100.00;99229.88;1786773;80;21080;-64
2021/12/29 04:42:41;;;;;;;10.03;4.33;;;;;;;-6.98;100.00;99223.27;1778065;80;20106;-63
2021/12/29 04:45:08;;;;;;;7.67;3.95;;;;;;;-7.03;100.00;99223.77;1785053;79;21386;-63
2021/12/29 04:47:39;;;;;;;8.28;4.17;;;;;;;-7.05;100.00;99228.42;1784581;80;21026;-64
2021/12/29 04:50:04;;;;;;;8.40;4.50;;;;;;;-7.06;100.00;99227.59;1786590;80;21160;-62
2021/12/29 04:52:31;;;;;;;12.40;5.17;;;;;;;-7.05;100.00;99230.55;1788064;80;21007;-63
2021/12/29 04:54:58;;;;;;;10.35;5.37;;;;;;;-7.05;100.00;99242.98;1784473;79;21820;-63
2021/12/29 04:57:26;;;;;;;12.93;4.67;;;;;;;-7.05;100.00;99245.63;1778528;80;21071;-63
2021/12/29 04:59:52;;;;;;;9.83;5.05;;;;;;;-7.03;100.00;99242.78;1789089;80;21504;-63
2021/12/29 05:02:19;;;;;;;;;;;;;;;-7.01;100.00;99236.84;1788620;79;21516;-64
2021/12/29 05:04:48;;;;;;;11.93;5.50;;;;;;;-6.97;100.00;99232.83;1768610;80;20136;-63
2021/12/29 05:09:59;;;;;;;10.72;5.70;;;;;;;-7.06;100.00;99227.59;1747459;82;21015;-63
2021/12/29 05:12:25;;;;;;;10.93;5.62;;;;;;;-7.06;100.00;99224.95;1748495;81;21494;-62
2021/12/29 05:14:52;;;;;;;11.73;5.92;;;;;;;-7.05;100.00;99227.10;1738607;81;21527;-63
2021/12/29 05:17:20;;;;;;;10.30;5.97;;;;;;;-7.04;100.00;99227.41;1738009;82;21055;-62
2021/12/29 05:19:47;;;;;;;;;;;;;;;-7.00;100.00;99231.85;1736341;82;21605;-63
2021/12/29 05:22:13;;;;;;;11.28;5.12;;;;;;;-7.01;100.00;99225.73;1722900;82;20124;-63
2021/12/29 05:24:39;;;;;;;12.45;6.37;;;;;;;-7.03;100.00;99223.77;1777307;80;21029;-63
2021/12/29 05:27:06;;;;;;;12.20;6.90;;;;;;;-7.01;100.00;99226.27;1775340;80;21053;-63
2021/12/29 05:29:33;;;;;;;12.30;6.28;;;;;;;-6.98;100.00;99236.49;1786901;80;21507;-63
2021/12/29 05:31:59;;;;;;;13.72;6.75;;;;;;;-6.99;100.00;99240.13;1785325;79;20985;-63
2021/12/29 05:34:26;;;;;;;12.53;7.10;;;;;;;-6.96;100.00;99240.61;1770701;80;21568;-63
2021/12/29 05:36:52;;;;;;;12.70;6.95;;;;;;;-6.90;100.00;99246.52;1788147;79;20975;-63
2021/12/29 05:39:18;;;;;;;14.15;7.08;;;;;;;-6.88;100.00;99248.52;1770891;81;20982;-63
2021/12/29 05:41:45;;;;;;;14.30;7.17;;;;;;;-6.87;100.00;99247.50;1766417;80;21551;-63
2021/12/29 05:44:11;;;;;;;15.80;7.42;;;;;;;-6.84;100.00;99243.70;1773014;80;21068;-63
2021/12/29 05:46:38;;;;;;;14.68;7.58;;;;;;;-6.84;100.00;99241.06;1774619;81;21069;-62
2021/12/29 05:49:04;;;;;;;12.95;6.87;;;;;;;-6.84;100.00;99231.80;1775054;80;21032;-62
2021/12/29 05:51:31;;;;;;;13.32;6.75;;;;;;;-6.86;100.00;99235.92;1771282;80;20986;-63
2021/12/29 05:53:57;;;;;;;14.33;7.37;;;;;;;-6.89;100.00;99237.59;1769233;80;21942;-63
2021/12/29 05:56:24;;;;;;;14.28;6.62;;;;;;;-6.86;100.00;99232.45;1778163;80;21018;-63
2021/12/29 05:58:50;;;;;;;14.35;7.17;;;;;;;-6.84;100.00;99241.06;1762742;80;21029;-62
2021/12/29 06:01:17;;;;;;;13.40;7.08;;;;;;;-6.85;100.00;99236.26;1764288;79;21565;-63
2021/12/29 06:03:43;;;;;;;13.30;6.65;;;;;;;-6.84;100.00;99234.44;1777266;80;21027;-63
2021/12/29 06:06:10;;;;;;;;;;;;;;;-6.86;100.00;99242.54;1781814;80;20999;-63
2021/12/29 06:08:36;;;;;;;12.75;5.90;;;;;;;-6.89;100.00;99242.89;1785508;79;20108;-63
2021/12/29 06:11:03;;;;;;;14.38;7.62;;;;;;;-6.90;100.00;99246.52;1760622;80;20999;-63
2021/12/29 06:13:30;;;;;;;13.43;7.12;;;;;;;-6.87;100.00;99243.53;1782600;80;21102;-63
2021/12/29 06:15:57;;;;;;;13.20;7.33;;;;;;;-6.83;100.00;99240.03;1787473;80;21070;-63
2021/12/29 06:18:23;;;;;;;14.85;7.05;;;;;;;-6.80;100.00;99235.22;1786249;80;21015;-63
2021/12/29 06:20:50;;;;;;;17.10;7.85;;;;;;;-6.76;100.00;99232.56;1785339;80;21046;-63
2021/12/29 06:23:17;;;;;;;16.30;8.00;;;;;;;-6.74;100.00;99238.52;1785463;79;21005;-63
2021/12/29 06:25:45;;;;;;;13.15;6.60;;;;;;;-6.71;100.00;99230.72;1785165;79;21086;-67
2021/12/29 06:28:12;;;;;;;12.65;7.50;;;;;;;-6.68;100.00;99233.84;1782984;79;21018;-64
2021/12/29 06:30:38;;;;;;;13.00;6.87;;;;;;;-6.64;100.00;99240.45;1774864;79;21028;-63
2021/12/29 06:33:04;;;;;;;16.12;7.60;;;;;;;-6.68;100.00;99233.84;1788052;79;21058;-65
2021/12/29 06:35:31;;;;;;;15.13;7.17;;;;;;;-6.73;100.00;99240.15;1774055;80;21567;-64
2021/12/29 06:37:57;;;;;;;14.00;7.33;;;;;;;-6.72;100.00;99248.92;1775053;79;21011;-64
2021/12/29 06:40:24;;;;;;;19.90;9.13;;;;;;;-6.69;100.00;99243.27;1775132;80;21653;-64
2021/12/29 06:42:50;;;;;;;22.32;9.93;;;;;;;-6.68;100.00;99239.64;1773140;80;21016;-63
2021/12/29 06:45:17;;;;;;;20.70;10.70;;;;;;;-6.68;100.00;99239.14;1782838;80;21141;-65
2021/12/29 06:47:43;;;;;;;17.55;8.10;;;;;;;-6.60;100.00;99246.22;1780549;79;21576;-66
2021/12/29 06:50:10;;;;;;;22.95;12.13;;;;;;;-6.59;100.00;99250.00;1785717;80;21121;-66
2021/12/29 06:52:37;;;;;;;26.30;12.37;;;;;;;-6.57;100.00;99249.84;1776916;79;21002;-68
2021/12/29 06:55:05;;;;;;;19.42;10.18;;;;;;;-6.57;100.00;99249.84;1781984;80;21082;-68
2021/12/29 06:57:32;;;;;;;24.77;11.40;;;;;;;-6.54;100.00;99256.10;1793195;79;21113;-66
2021/12/29 06:59:59;;;;;;;22.98;10.30;;;;;;;-6.49;100.00;99247.64;1799906;79;21015;-66
2021/12/29 07:02:25;;;;;;;22.50;10.72;;;;;;;-6.51;100.00;99240.36;1813071;79;21547;-67
2021/12/29 07:04:52;;;;;;;26.73;12.60;;;;;;;-6.49;100.00;99241.86;1786303;79;21039;-67
2021/12/29 07:07:18;;;;;;;;;;;;;;;-6.48;100.00;99244.01;1774254;79;21049;-66
2021/12/29 07:09:44;;;;;;;22.73;10.18;;;;;;;-6.48;100.00;99240.83;1759905;80;20100;-66
2021/12/29 07:12:11;;;;;;;;;;;;;;;-6.51;100.00;99241.69;1773671;80;21547;-63
2021/12/29 07:14:39;;;;;;;24.07;11.45;;;;;;;-6.49;100.00;99239.70;1779780;80;20086;-65
2021/12/29 07:17:06;;;;;;;22.32;11.57;;;;;;;-6.55;100.00;99239.39;1780263;80;21074;-66
2021/12/29 07:19:33;;;;;;;23.50;9.95;;;;;;;-6.55;100.00;99240.71;1746801;82;21086;-66
2021/12/29 07:22:00;;;;;;;;;;;;;;;-6.51;100.00;99238.54;1749243;82;21046;-65
2021/12/29 07:24:27;;;;;;;15.13;7.67;;;;;;;-6.48;100.00;99239.51;1746882;82;20122;-66
2021/12/29 07:26:53;;;;;;;14.90;7.62;;;;;;;-6.52;100.00;99236.08;1760707;81;21513;-65
2021/12/29 07:29:20;;;;;;;17.55;8.30;;;;;;;-6.49;100.00;99241.86;1777600;81;21055;-66
2021/12/29 07:31:46;;;;;;;14.63;8.48;;;;;;;-6.42;100.00;99245.45;1777699;81;21564;-65
2021/12/29 07:34:12;;;;;;;15.83;8.58;;;;;;;-6.35;100.00;99251.69;1777820;81;21061;-66
2021/12/29 07:36:39;;;;;;;;;;;;;;;-6.30;100.00;99252.47;1777121;81;21023;-65
2021/12/29 07:39:09;;;;;;;13.80;7.05;;;;;;;-6.33;100.00;99251.00;1761393;80;20105;-66
2021/12/29 07:41:34;;;;;;;12.90;7.72;;;;;;;-6.35;100.00;99258.31;1711473;83;21553;-66
2021/12/29 07:44:03;;;;;;;13.90;7.45;;;;;;;-6.31;100.00;99253.49;1724005;83;21033;-65
2021/12/29 07:46:32;;;;;;;13.85;8.08;;;;;;;-6.24;100.00;99245.16;1734659;82;21047;-66
2021/12/29 07:48:57;;;;;;;14.53;8.53;;;;;;;-6.20;100.00;99249.91;1740556;82;21079;-65
2021/12/29 07:51:23;;;;;;;17.65;8.98;;;;;;;-6.12;100.00;99249.03;1740877;82;21542;-66
2021/12/29 07:53:50;;;;;;;14.05;6.58;;;;;;;-6.08;100.00;99248.51;1740748;82;21091;-65
2021/12/29 07:56:17;;;;;;;;;;;;;;;-6.04;100.00;99246.33;1740367;82;21530;-66
2021/12/29 07:58:43;;;;;;;14.78;7.53;;;;;;;-5.98;100.00;99245.61;1720233;83;20104;-66
2021/12/29 08:01:09;;;;;;;18.27;8.85;;;;;;;-5.97;100.00;99245.94;1720542;83;21614;-66
2021/12/29 08:03:36;;;;;;;15.72;8.43;;;;;;;-5.93;100.00;99249.05;1720365;83;21031;-65
2021/12/29 08:06:03;;;;;;;14.25;7.70;;;;;;;-5.92;100.00;99252.87;1719335;83;21074;-65
2021/12/29 08:08:29;;;;;;;13.18;7.33;;;;;;;-5.88;100.00;99245.38;1716190;83;21679;-66
2021/12/29 08:10:56;;;;;;;14.20;7.87;;;;;;;-5.85;100.00;99247.14;1716609;83;21185;-66
2021/12/29 08:13:22;;;;;;;14.95;8.28;;;;;;;-5.87;100.00;99243.86;1716440;83;21050;-66
2021/12/29 08:15:49;;;;;;;12.65;7.72;;;;;;;-5.92;100.00;99248.06;1703221;83;21550;-66
2021/12/29 08:18:17;;;;;;;16.82;8.80;;;;;;;-6.00;100.00;99254.25;1691220;85;21055;-65
2021/12/29 08:20:44;;;;;;;19.10;8.65;;;;;;;-5.98;100.00;99249.58;1691154;85;21540;-66
2021/12/29 08:23:10;;;;;;;14.40;8.23;;;;;;;-5.96;100.00;99257.37;1691373;84;21035;-66
2021/12/29 08:25:37;;;;;;;15.43;7.90;;;;;;;-5.95;100.00;99253.20;1669131;86;21579;-66
2021/12/29 08:28:04;;;;;;;15.03;7.80;;;;;;;-5.93;100.00;99248.56;1668583;86;21059;-66
2021/12/29 08:30:32;;;;;;;16.52;8.93;;;;;;;-5.88;100.00;99244.85;1668755;86;21580;-65
2021/12/29 08:32:58;;;;;;;17.05;8.30;;;;;;;-5.87;100.00;99253.14;1668681;86;21047;-65
2021/12/29 08:35:27;;;;;;;17.80;9.08;;;;;;;-5.90;100.00;99248.20;1686695;83;21023;-66
2021/12/29 08:37:54;;;;;;;18.10;10.40;;;;;;;-5.83;100.00;99241.64;1691040;85;21082;-66
2021/12/29 08:40:20;;;;;;;17.57;9.75;;;;;;;-5.83;100.00;99245.62;1691301;85;21547;-66
2021/12/29 08:42:48;;;;;;;16.93;9.23;;;;;;;-5.81;100.00;99254.23;1696272;83;21027;-66
2021/12/29 08:45:16;;;;;;;18.35;9.38;;;;;;;-5.80;100.00;99246.09;1716204;83;21082;-66
2021/12/29 08:47:44;;;;;;;19.27;9.45;;;;;;;-5.77;100.00;99249.70;1696624;84;21026;-65
2021/12/29 08:50:15;;;;;;;17.32;9.28;;;;;;;-5.72;100.00;99252.65;1731547;83;21065;-66
2021/12/29 08:52:41;;;;;;;17.30;10.35;;;;;;;-5.69;100.00;99247.48;1747744;80;21098;-66
2021/12/29 08:55:08;;;;;;;;;;;;;;;-5.66;100.00;99241.81;1748872;81;21547;-65
2021/12/29 08:57:35;;;;;;;16.32;9.08;;;;;;;-5.65;100.00;99239.48;1746319;82;20119;-66
2021/12/29 09:00:04;;;;;;;25.88;10.00;;;;;;;-5.69;100.00;99238.20;1753976;81;20982;-66
2021/12/29 09:02:32;;;;;;;17.42;9.58;;;;;;;-5.66;100.00;99239.16;1767633;81;21058;-67
2021/12/29 09:04:58;;;;;;;18.57;9.65;;;;;;;-5.67;100.00;99234.88;1768491;81;21967;-65
2021/12/29 09:07:25;;;;;;;18.48;10.00;;;;;;;-5.63;100.00;99233.48;1779499;80;21090;-66
2021/12/29 09:09:52;;;;;;;17.80;10.32;;;;;;;-5.60;100.00;99223.34;1781096;80;21102;-66
2021/12/29 09:12:20;;;;;;;16.52;9.78;;;;;;;-5.56;100.00;99224.64;1749008;82;21039;-66
2021/12/29 09:14:48;;;;;;;18.98;9.98;;;;;;;-5.57;100.00;99228.81;1749071;82;21043;-66
2021/12/29 09:17:15;;;;;;;21.37;11.63;;;;;;;-5.57;100.00;99227.48;1748891;82;21026;-66
2021/12/29 09:19:44;;;;;;;24.18;12.95;;;;;;;-5.47;100.00;99229.87;1771016;80;21513;-66
2021/12/29 09:22:12;;;;;;;22.98;11.93;;;;;;;-5.49;100.00;99230.03;1786072;80;21059;-65
2021/12/29 09:24:39;;;;;;;22.42;12.55;;;;;;;-5.53;100.00;99240.71;1785884;80;21063;-65
2021/12/29 09:27:06;;;;;;;25.95;13.78;;;;;;;-5.46;100.00;99227.05;1786098;80;21093;-66
2021/12/29 09:29:34;;;;;;;23.38;11.53;;;;;;;-5.48;100.00;99238.32;1772406;80;21574;-66
2021/12/29 09:32:03;;;;;;;23.02;12.63;;;;;;;-5.42;100.00;99237.59;1749045;82;21042;-65
2021/12/29 09:34:35;;;;;;;23.83;11.93;;;;;;;-5.34;100.00;99236.19;1748856;82;21646;-66
2021/12/29 09:37:02;;;;;;;21.77;12.35;;;;;;;-5.25;100.00;99240.91;1749088;82;21038;-66
2021/12/29 09:39:28;;;;;;;23.52;12.45;;;;;;;-5.15;100.00;99240.95;1751898;80;21553;-66
2021/12/29 09:41:54;;;;;;;20.60;12.82;;;;;;;-5.04;100.00;99239.67;1749161;82;21105;-66
2021/12/29 09:44:21;;;;;;;21.73;12.50;;;;;;;-4.94;100.00;99240.70;1749060;82;21062;-66
2021/12/29 09:46:51;;;;;;;22.70;12.45;;;;;;;-4.90;100.00;99241.98;1749036;82;21054;-67
2021/12/29 09:49:18;;;;;;;20.48;12.73;;;;;;;-4.90;100.00;99245.47;1756202;80;21096;-66
2021/12/29 09:51:45;;;;;;;22.42;12.35;;;;;;;-4.87;100.00;99244.27;1757314;80;21066;-66
2021/12/29 09:54:12;;;;;;;22.65;12.55;;;;;;;-4.78;100.00;99241.84;1749078;82;21015;-65
2021/12/29 09:56:39;;;;;;;21.87;12.88;;;;;;;-4.76;100.00;99235.33;1751018;80;21569;-65
2021/12/29 09:59:05;;;;;;;21.40;12.80;;;;;;;-4.82;100.00;99240.56;1786395;80;20995;-65
2021/12/29 10:01:33;;;;;;;24.07;12.63;;;;;;;-4.85;100.00;99236.42;1785892;80;21042;-66
2021/12/29 10:04:00;;;;;;;20.85;12.30;;;;;;;-4.90;100.00;99238.00;1786301;80;21093;-66
2021/12/29 10:06:26;;;;;;;;;;;;;;;-4.95;100.00;99234.56;1788798;80;21026;-66
2021/12/29 10:08:54;;;;;;;25.75;13.72;;;;;;;-4.92;100.00;99236.05;1748853;80;20130;-65
2021/12/29 10:11:30;;;;;;;25.15;13.45;;;;;;;-4.91;100.00;99234.52;1739306;82;21525;-66
2021/12/29 10:13:56;;;;;;;26.55;14.20;;;;;;;-4.89;100.00;99231.70;1739115;82;21081;-66
2021/12/29 10:16:28;;;;;;;22.87;13.18;;;;;;;-4.91;100.00;99237.17;1752766;80;20995;-65
2021/12/29 10:19:06;;;;;;;26.15;15.10;;;;;;;-4.90;100.00;99235.34;1786638;80;21060;-66
2021/12/29 10:21:33;;;;;;;25.72;14.07;;;;;;;-4.84;100.00;99235.42;1786827;80;21007;-66
2021/12/29 10:24:01;;;;;;;25.27;14.65;;;;;;;-4.77;100.00;99238.16;1786373;80;21039;-66
2021/12/29 10:26:31;;;;;;;24.45;14.58;;;;;;;-4.79;100.00;99238.36;1779032;80;20976;-66
2021/12/29 10:29:02;;;;;;;23.05;13.25;;;;;;;-4.78;100.00;99236.00;1784494;80;21085;-66
2021/12/29 10:31:38;;;;;;;26.50;15.38;;;;;;;-4.77;100.00;99234.17;1786713;80;20955;-66
2021/12/29 10:34:07;;;;;;;26.15;14.53;;;;;;;-4.75;100.00;99232.17;1783497;80;21749;-66
2021/12/29 10:36:40;;;;;;;26.95;15.30;;;;;;;-4.74;100.00;99232.47;1785481;80;21422;-66
2021/12/29 10:39:21;;;;;;;24.82;13.98;;;;;;;-4.75;100.00;99238.31;1786328;80;21137;-66
2021/12/29 10:41:59;;;;;;;26.60;15.20;;;;;;;-4.67;100.00;99234.20;1786690;80;21584;-66
2021/12/29 10:44:38;;;;;;;28.57;15.95;;;;;;;-4.60;100.00;99226.30;1786368;80;21098;-66
2021/12/29 10:47:28;;;;;;;25.25;15.08;;;;;;;-4.57;100.00;99236.58;1773560;80;21066;-65
2021/12/29 10:50:05;;;;;;;29.05;15.23;;;;;;;-4.56;100.00;99231.06;1786117;80;21038;-66
2021/12/29 10:52:38;;;;;;;29.98;16.50;;;;;;;-4.59;100.00;99228.78;1786588;80;21070;-66
2021/12/29 10:55:31;;;;;;;27.42;16.07;;;;;;;-4.63;100.00;99224.86;1762488;80;21472;-66
2021/12/29 10:58:09;;;;;;;31.42;17.90;;;;;;;-4.71;100.00;99227.61;1736279;82;21034;-66
2021/12/29 11:00:37;;;;;;;31.40;17.02;;;;;;;-4.72;100.00;99229.97;1736602;82;21804;-66
2021/12/29 11:03:13;;;;;;;29.80;16.55;;;;;;;-4.79;100.00;99226.91;1736424;82;21066;-66
2021/12/29 11:05:47;;;;;;;28.15;16.40;;;;;;;-4.83;100.00;99223.80;1759812;80;20963;-65
2021/12/29 11:08:12;;;;;;;30.43;16.80;;;;;;;-4.77;100.00;99225.70;1780481;80;21644;-65
2021/12/29 11:10:40;;;;;;;28.73;16.70;;;;;;;-4.68;100.00;99223.78;1777520;80;21087;-65
2021/12/29 11:13:08;;;;;;;;;;;;;;;-4.62;100.00;99219.04;1780211;81;21109;-65
2021/12/29 11:15:41;;;;;;;29.37;16.17;;;;;;;-4.60;100.00;99229.78;1746950;82;20440;-65
2021/12/29 11:18:11;;;;;;;30.17;16.97;;;;;;;-4.69;100.00;99226.94;1746641;82;21003;-64
2021/12/29 11:20:39;;;;;;;32.05;17.55;;;;;;;-4.71;100.00;99230.27;1747284;81;21019;-64
2021/12/29 11:23:17;;;;;;;32.28;17.37;;;;;;;-4.75;100.00;99228.19;1746890;82;21046;-64
2021/12/29 11:25:44;;;;;;;31.20;17.40;;;;;;;-4.77;100.00;99231.02;1748425;81;20988;-65
2021/12/29 11:28:28;;;;;;;29.02;17.65;;;;;;;-4.81;100.00;99229.74;1741144;82;21511;-64
2021/12/29 11:30:59;;;;;;;29.32;17.65;;;;;;;-4.85;100.00;99229.79;1741046;82;20988;-65
2021/12/29 11:33:31;;;;;;;28.80;16.52;;;;;;;-4.83;100.00;99233.09;1741831;81;21448;-65
2021/12/29 11:35:58;;;;;;;30.40;16.85;;;;;;;-4.74;100.00;99236.45;1741009;82;21487;-65
2021/12/29 11:38:26;;;;;;;34.48;18.40;;;;;;;-4.64;100.00;99240.46;1740899;82;21051;-64
2021/12/29 11:40:57;;;;;;;28.95;17.27;;;;;;;-4.58;100.00;99242.89;1740954;82;21019;-65
2021/12/29 11:43:23;;;;;;;28.73;16.67;;;;;;;-4.57;100.00;99241.36;1750144;81;21071;-65